Time;durP1;ratioP1;P1;durP2;ratioP2;P2;SDS_P1;SDS_P2;PMS_P1;PMS_P2;Temp;Humidity;BMP_temperature;BMP_pressure;BME280_temperature;BME280_humidity;BME280_pressure;Samples;Min_cycle;Max_cycle;Signal;HPM_P1;HPM_P2
2023/01/10 19:58:35;;;;;;;56.60;44.00;;;;;;;4.26;100.00;99304.26;102714;1295;607848;-71
2023/01/10 20:01:26;;;;;;;54.70;42.30;;;;;;;4.23;100.00;99310.34;105076;1270;59266;-72
2023/01/10 20:14:26;;;;;;;45.30;36.20;;;;;;;4.22;100.00;99314.97;102668;1292;601408;-73
2023/01/10 20:16:53;;;;;;;46.30;38.00;;;;;;;4.20;100.00;99314.15;104998;1266;59283;-73
2023/01/10 20:19:21;;;;;;;39.60;33.20;;;;;;;4.19;100.00;99311.71;105023;1266;59252;-72
2023/01/10 20:21:48;;;;;;;44.10;36.20;;;;;;;4.17;100.00;99315.30;104976;1266;63601;-72
2023/01/10 20:24:17;;;;;;;48.70;36.50;;;;;;;4.15;100.00;99318.69;105020;1266;60351;-71
2023/01/10 20:26:46;;;;;;;50.60;38.60;;;;;;;4.15;100.00;99323.29;104801;1268;64099;-71
2023/01/10 20:29:14;;;;;;;46.00;37.70;;;;;;;4.12;100.00;99324.25;105045;1262;183647;-73
2023/01/10 20:31:42;;;;;;;46.10;36.80;;;;;;;4.11;100.00;99329.23;105236;1262;59598;-72
2023/01/10 20:34:08;;;;;;;48.40;37.20;;;;;;;4.10;100.00;99331.20;105435;1256;65142;-72
2023/01/10 20:36:35;;;;;;;50.00;38.30;;;;;;;4.09;100.00;99335.09;105398;1262;61612;-72
2023/01/10 20:39:02;;;;;;;53.60;42.00;;;;;;;4.09;100.00;99337.22;105491;1256;65991;-72
2023/01/10 20:41:29;;;;;;;57.50;45.40;;;;;;;4.08;100.00;99336.20;105501;1260;59750;-72
2023/01/10 20:43:56;;;;;;;55.10;42.40;;;;;;;4.08;100.00;99333.73;105438;1256;59579;-72
2023/01/10 20:46:26;;;;;;;56.00;39.20;;;;;;;4.08;100.00;99333.73;105544;1260;66071;-72
2023/01/10 20:48:55;;;;;;;60.60;42.10;;;;;;;4.06;100.00;99342.77;105501;1260;61268;-72
2023/01/10 20:51:26;;;;;;;56.90;41.40;;;;;;;4.06;100.00;99348.73;105675;1256;65712;-71
2023/01/10 20:53:52;;;;;;;63.10;40.50;;;;;;;4.06;100.00;99350.33;105626;1256;59644;-72
2023/01/10 20:56:22;;;;;;;56.60;39.00;;;;;;;4.06;100.00;99351.73;105567;1261;59545;-72
2023/01/10 20:58:50;;;;;;;63.20;41.40;;;;;;;4.06;100.00;99352.61;105567;1257;64379;-72
2023/01/10 21:01:17;;;;;;;67.40;41.50;;;;;;;4.07;100.00;99344.50;105715;1256;60783;-72
2023/01/10 21:03:45;;;;;;;60.20;40.00;;;;;;;4.07;100.00;99344.87;105487;1256;64477;-71
2023/01/10 21:06:14;;;;;;;58.40;39.20;;;;;;;4.06;100.00;99348.92;105530;1256;60016;-72
2023/01/10 21:08:41;;;;;;;55.80;38.60;;;;;;;4.06;100.00;99352.27;105604;1256;59665;-72
2023/01/10 21:11:10;;;;;;;54.90;38.40;;;;;;;4.06;100.00;99345.41;105312;1262;64920;-72
2023/01/10 21:13:37;;;;;;;54.00;36.60;;;;;;;4.05;100.00;99341.20;105375;1264;60427;-72
2023/01/10 21:16:04;;;;;;;55.90;39.30;;;;;;;4.05;100.00;99336.48;105500;1256;65382;-72
2023/01/10 21:18:40;;;;;;;57.40;39.50;;;;;;;4.03;100.00;99336.70;105311;1257;59703;-72
2023/01/10 21:21:07;;;;;;;52.80;38.40;;;;;;;4.02;100.00;99334.13;105458;1256;59654;-71
2023/01/10 21:23:34;;;;;;;50.60;37.60;;;;;;;4.01;100.00;99337.33;105551;1256;64939;-71
2023/01/10 21:26:04;;;;;;;55.80;40.50;;;;;;;3.99;100.00;99337.92;105509;1256;61382;-74
2023/01/10 21:28:37;;;;;;;56.00;43.40;;;;;;;3.98;100.00;99342.17;105342;1257;65603;-72
2023/01/10 21:31:05;;;;;;;60.30;44.10;;;;;;;3.97;100.00;99350.27;105561;1259;59636;-73
2023/01/10 21:33:32;;;;;;;60.30;45.80;;;;;;;3.98;100.00;99350.61;105577;1256;59638;-72
2023/01/10 21:35:58;;;;;;;60.90;43.80;;;;;;;3.98;100.00;99347.45;105589;1257;62806;-71
2023/01/10 21:38:28;;;;;;;59.70;42.60;;;;;;;3.96;100.00;99352.26;105467;1261;61438;-72
2023/01/10 21:41:02;;;;;;;59.50;41.40;;;;;;;3.96;100.00;99354.01;105292;1258;65647;-72
2023/01/10 21:43:31;;;;;;;57.30;41.40;;;;;;;3.97;100.00;99355.02;105432;1256;59629;-72
2023/01/10 21:45:58;;;;;;;53.90;40.10;;;;;;;3.97;100.00;99358.02;105486;1256;60016;-73
2023/01/10 21:48:25;;;;;;;52.70;41.40;;;;;;;3.98;100.00;99366.79;105444;1256;66058;-71
2023/01/10 21:50:52;;;;;;;55.70;43.30;;;;;;;3.98;100.00;99371.02;105361;1256;60366;-72
2023/01/10 21:53:19;;;;;;;58.70;44.00;;;;;;;3.98;100.00;99373.45;105445;1256;62429;-72
2023/01/10 21:55:46;;;;;;;60.80;44.20;;;;;;;3.98;100.00;99375.73;105489;1258;59583;-72
2023/01/10 21:58:13;;;;;;;59.60;43.70;;;;;;;3.98;100.00;99376.63;105504;1256;59662;-72
2023/01/10 22:00:39;;;;;;;60.30;44.40;;;;;;;3.98;100.00;99378.90;105533;1256;65600;-72
2023/01/10 22:03:06;;;;;;;57.80;43.60;;;;;;;3.99;100.00;99375.55;105507;1260;60138;-72
2023/01/10 22:05:33;;;;;;;64.50;46.60;;;;;;;3.99;100.00;99374.13;105294;1264;65161;-71
2023/01/10 22:07:59;;;;;;;63.70;47.60;;;;;;;4.00;100.00;99373.03;105454;1260;59676;-71
2023/01/10 22:10:26;;;;;;;65.60;46.40;;;;;;;4.01;100.00;99375.13;105477;1258;59592;-72
2023/01/10 22:12:53;;;;;;;62.40;44.60;;;;;;;4.01;100.00;99373.38;109078;1256;64932;-72
2023/01/10 22:15:21;;;;;;;61.80;46.70;;;;;;;4.02;100.00;99373.33;109061;1256;59723;-71
2023/01/10 22:17:47;;;;;;;60.80;44.70;;;;;;;4.03;100.00;99375.05;109073;1256;63714;-71
2023/01/10 22:20:15;;;;;;;65.60;47.20;;;;;;;4.05;100.00;99376.73;109068;1256;57499;-72
2023/01/10 22:22:42;;;;;;;62.20;44.60;;;;;;;4.06;100.00;99369.49;109085;1257;57270;-72
2023/01/10 22:25:08;;;;;;;62.10;45.20;;;;;;;4.06;100.00;99362.99;109095;1256;65079;-71
2023/01/10 22:27:35;;;;;;;65.20;48.50;;;;;;;4.06;100.00;99363.86;109100;1256;61636;-71
2023/01/10 22:30:03;;;;;;;66.80;47.60;;;;;;;4.07;100.00;99365.06;109082;1256;63693;-71
2023/01/10 22:32:29;;;;;;;65.10;46.40;;;;;;;4.07;100.00;99363.66;108838;1256;57567;-72
2023/01/10 22:34:56;;;;;;;62.10;45.90;;;;;;;4.08;100.00;99363.98;109087;1256;57807;-71
2023/01/10 22:37:23;;;;;;;65.30;45.90;;;;;;;4.08;100.00;99366.08;109090;1256;64063;-71
2023/01/10 22:39:49;;;;;;;59.80;46.00;;;;;;;4.10;100.00;99368.83;109078;1256;60835;-72
2023/01/10 22:42:16;;;;;;;62.50;46.90;;;;;;;4.12;100.00;99367.37;109068;1256;64795;-72
2023/01/10 22:44:42;;;;;;;58.70;45.80;;;;;;;4.13;100.00;99368.73;109095;1256;57413;-72
2023/01/10 22:47:09;;;;;;;57.70;43.30;;;;;;;4.14;100.00;99365.19;109066;1256;57425;-72
2023/01/10 22:49:35;;;;;;;59.00;44.00;;;;;;;4.14;100.00;99363.77;109062;1256;64285;-72
2023/01/10 22:52:02;;;;;;;61.50;46.60;;;;;;;4.15;100.00;99361.10;109104;1256;61082;-72
2023/01/10 22:54:29;;;;;;;69.30;48.00;;;;;;;4.15;100.00;99359.85;108902;1256;64857;-71
2023/01/10 22:56:55;;;;;;;65.80;48.50;;;;;;;4.16;100.00;99362.29;109151;1256;57769;-72
2023/01/10 22:59:22;;;;;;;67.80;49.70;;;;;;;4.15;100.00;99367.58;109150;1256;57522;-72
2023/01/10 23:01:48;;;;;;;67.30;50.00;;;;;;;4.15;100.00;99372.18;109152;1256;64285;-71
2023/01/10 23:04:18;;;;;;;64.30;47.20;;;;;;;4.14;100.00;99373.63;109146;1255;59684;-72
2023/01/10 23:06:45;;;;;;;62.80;48.50;;;;;;;4.14;100.00;99372.05;109124;1255;65228;-71
2023/01/10 23:09:12;;;;;;;63.60;49.20;;;;;;;4.13;100.00;99363.45;109124;1256;57434;-71
2023/01/10 23:11:38;;;;;;;68.10;49.90;;;;;;;4.11;100.00;99361.58;109135;1256;57450;-72
2023/01/10 23:14:06;;;;;;;73.10;51.90;;;;;;;4.09;100.00;99356.73;109123;1256;65588;-71
2023/01/10 23:16:33;;;;;;;66.10;48.80;;;;;;;4.10;100.00;99362.33;109118;1255;59838;-72
2023/01/10 23:18:59;;;;;;;66.70;48.00;;;;;;;4.09;100.00;99362.70;109105;1255;65002;-72
2023/01/10 23:21:29;;;;;;;59.10;44.90;;;;;;;4.10;100.00;99363.91;109133;1256;57430;-71
2023/01/10 23:23:56;;;;;;;60.70;45.60;;;;;;;4.11;100.00;99360.72;109071;1256;57409;-71
2023/01/10 23:26:23;;;;;;;63.00;45.10;;;;;;;4.10;100.00;99354.23;109155;1256;64157;-72
2023/01/10 23:28:50;;;;;;;64.40;46.30;;;;;;;4.09;100.00;99351.45;109125;1255;60634;-71
2023/01/10 23:31:22;;;;;;;62.40;47.10;;;;;;;4.09;100.00;99353.92;109109;1256;64061;-72
2023/01/10 23:33:50;;;;;;;62.60;46.70;;;;;;;4.08;100.00;99351.66;109106;1255;57851;-72
2023/01/10 23:36:18;;;;;;;62.50;44.60;;;;;;;4.07;100.00;99354.34;108901;1255;57387;-72
2023/01/10 23:38:44;;;;;;;59.40;43.80;;;;;;;4.07;100.00;99357.16;109118;1256;63054;-71
2023/01/10 23:41:11;;;;;;;60.50;43.40;;;;;;;4.06;100.00;99360.88;109104;1255;60100;-71
2023/01/10 23:43:38;;;;;;;56.60;42.60;;;;;;;4.05;100.00;99360.02;109122;1256;65223;-71
2023/01/10 23:46:05;;;;;;;59.50;43.00;;;;;;;4.05;100.00;99363.55;109111;1256;57317;-71
2023/01/10 23:48:33;;;;;;;57.90;42.80;;;;;;;4.05;100.00;99360.73;109118;1256;57522;-72
2023/01/10 23:50:59;;;;;;;59.40;45.10;;;;;;;4.04;100.00;99355.86;109134;1256;64282;-71
2023/01/10 23:53:26;;;;;;;58.10;43.60;;;;;;;4.03;100.00;99354.48;109124;1256;60006;-71
2023/01/10 23:55:53;;;;;;;59.70;42.40;;;;;;;4.03;100.00;99354.84;109115;1255;64700;-71
2023/01/10 23:58:19;;;;;;;61.40;43.60;;;;;;;4.01;100.00;99353.31;109135;1255;57502;-71
